sensor_id;sensor_type;location;lat;lon;timestamp;pressure;altitude;pressure_sealevel;temperature;humidity
77410;BME280;66481;51.332;22.804;2023-07-13T00:03:15;99149.41;;;17.76;100.00
77410;BME280;66481;51.332;22.804;2023-07-13T00:07:17;99157.22;;;17.85;100.00
77410;BME280;66481;51.332;22.804;2023-07-13T00:11:20;99160.44;;;17.89;100.00
77410;BME280;66481;51.332;22.804;2023-07-13T00:15:24;99157.44;;;17.76;100.00
77410;BME280;66481;51.332;22.804;2023-07-13T00:19:25;99173.69;;;17.66;100.00
77410;BME280;66481;51.332;22.804;2023-07-13T00:23:26;99156.00;;;17.57;100.00
77410;BME280;66481;51.332;22.804;2023-07-13T00:27:27;99149.28;;;17.61;100.00
77410;BME280;66481;51.332;22.804;2023-07-13T00:31:30;99184.25;;;17.59;100.00
77410;BME280;66481;51.332;22.804;2023-07-13T00:35:31;99193.97;;;17.60;100.00
77410;BME280;66481;51.332;22.804;2023-07-13T00:39:34;99197.13;;;17.56;100.00
77410;BME280;66481;51.332;22.804;2023-07-13T00:43:36;99208.31;;;17.59;100.00
77410;BME280;66481;51.332;22.804;2023-07-13T00:47:41;99195.31;;;17.56;100.00
77410;BME280;66481;51.332;22.804;2023-07-13T00:51:49;99188.81;;;17.42;100.00
77410;BME280;66481;51.332;22.804;2023-07-13T00:55:53;99194.03;;;17.19;100.00
77410;BME280;66481;51.332;22.804;2023-07-13T00:59:59;99229.28;;;17.06;100.00
77410;BME280;66481;51.332;22.804;2023-07-13T01:04:03;99244.47;;;16.89;100.00
77410;BME280;66481;51.332;22.804;2023-07-13T01:08:09;99236.13;;;16.84;100.00
77410;BME280;66481;51.332;22.804;2023-07-13T01:12:11;99267.22;;;17.02;100.00
77410;BME280;66481;51.332;22.804;2023-07-13T01:16:30;99270.25;;;17.23;100.00
77410;BME280;66481;51.332;22.804;2023-07-13T01:20:32;99246.31;;;17.38;100.00
77410;BME280;66481;51.332;22.804;2023-07-13T01:24:38;99258.03;;;17.37;100.00
77410;BME280;66481;51.332;22.804;2023-07-13T01:28:39;99265.88;;;17.39;100.00
77410;BME280;66481;51.332;22.804;2023-07-13T01:32:41;99262.38;;;17.30;100.00
77410;BME280;66481;51.332;22.804;2023-07-13T01:36:43;99274.25;;;17.19;100.00
77410;BME280;66481;51.332;22.804;2023-07-13T01:40:44;99293.78;;;17.12;100.00
77410;BME280;66481;51.332;22.804;2023-07-13T01:44:46;99279.91;;;17.00;100.00
77410;BME280;66481;51.332;22.804;2023-07-13T01:48:47;99311.25;;;16.81;100.00
77410;BME280;66481;51.332;22.804;2023-07-13T01:52:49;99338.56;;;16.59;100.00
77410;BME280;66481;51.332;22.804;2023-07-13T01:56:50;99333.69;;;16.54;100.00
77410;BME280;66481;51.332;22.804;2023-07-13T02:00:51;99357.09;;;16.60;100.00
77410;BME280;66481;51.332;22.804;2023-07-13T02:04:52;99377.34;;;16.71;100.00
77410;BME280;66481;51.332;22.804;2023-07-13T02:08:53;99393.91;;;16.83;100.00
77410;BME280;66481;51.332;22.804;2023-07-13T02:12:54;99379.31;;;17.03;100.00
77410;BME280;66481;51.332;22.804;2023-07-13T02:16:55;99376.00;;;17.09;100.00
77410;BME280;66481;51.332;22.804;2023-07-13T02:20:57;99384.34;;;17.15;100.00
77410;BME280;66481;51.332;22.804;2023-07-13T02:24:58;99423.16;;;17.19;100.00
77410;BME280;66481;51.332;22.804;2023-07-13T02:28:59;99424.50;;;17.31;100.00
77410;BME280;66481;51.332;22.804;2023-07-13T02:33:00;99443.22;;;17.31;100.00
77410;BME280;66481;51.332;22.804;2023-07-13T02:37:01;99435.22;;;17.39;100.00
77410;BME280;66481;51.332;22.804;2023-07-13T02:41:04;99470.69;;;17.50;100.00
77410;BME280;66481;51.332;22.804;2023-07-13T02:45:07;99472.88;;;17.62;100.00
77410;BME280;66481;51.332;22.804;2023-07-13T02:49:09;99474.75;;;17.70;100.00
77410;BME280;66481;51.332;22.804;2023-07-13T02:53:11;99455.84;;;17.80;100.00
77410;BME280;66481;51.332;22.804;2023-07-13T02:57:13;99442.28;;;17.73;100.00
77410;BME280;66481;51.332;22.804;2023-07-13T03:01:14;99461.91;;;17.90;100.00
77410;BME280;66481;51.332;22.804;2023-07-13T03:05:19;99490.97;;;17.85;100.00
77410;BME280;66481;51.332;22.804;2023-07-13T03:09:20;99466.94;;;17.93;100.00
77410;BME280;66481;51.332;22.804;2023-07-13T03:13:21;99462.59;;;18.00;100.00
77410;BME280;66481;51.332;22.804;2023-07-13T03:17:22;99450.03;;;18.01;100.00
77410;BME280;66481;51.332;22.804;2023-07-13T03:21:23;99441.16;;;18.09;100.00
77410;BME280;66481;51.332;22.804;2023-07-13T03:25:24;99458.19;;;18.32;100.00
77410;BME280;66481;51.332;22.804;2023-07-13T03:29:25;99469.22;;;18.54;100.00
77410;BME280;66481;51.332;22.804;2023-07-13T03:33:26;99470.44;;;19.39;98.11
77410;BME280;66481;51.332;22.804;2023-07-13T03:37:27;99465.72;;;20.18;93.48
77410;BME280;66481;51.332;22.804;2023-07-13T03:41:28;99471.19;;;20.93;90.91
77410;BME280;66481;51.332;22.804;2023-07-13T03:45:30;99467.72;;;21.87;85.60
77410;BME280;66481;51.332;22.804;2023-07-13T03:49:33;99469.47;;;23.07;81.95
77410;BME280;66481;51.332;22.804;2023-07-13T03:53:38;99457.69;;;23.97;77.44
77410;BME280;66481;51.332;22.804;2023-07-13T03:57:40;99448.13;;;24.08;75.23
77410;BME280;66481;51.332;22.804;2023-07-13T04:01:43;99442.72;;;24.21;74.79
77410;BME280;66481;51.332;22.804;2023-07-13T04:05:45;99423.09;;;22.97;78.83
77410;BME280;66481;51.332;22.804;2023-07-13T04:09:46;99410.19;;;21.94;83.25
77410;BME280;66481;51.332;22.804;2023-07-13T04:13:48;99416.28;;;22.03;83.72
77410;BME280;66481;51.332;22.804;2023-07-13T04:17:49;99429.72;;;22.88;81.61
77410;BME280;66481;51.332;22.804;2023-07-13T04:21:50;99445.59;;;24.66;75.91
77410;BME280;66481;51.332;22.804;2023-07-13T04:25:52;99435.88;;;25.87;70.38
77410;BME280;66481;51.332;22.804;2023-07-13T04:29:53;99431.19;;;25.38;72.58
77410;BME280;66481;51.332;22.804;2023-07-13T04:33:55;99426.78;;;26.07;69.03
77410;BME280;66481;51.332;22.804;2023-07-13T04:37:57;99419.16;;;25.27;71.69
77410;BME280;66481;51.332;22.804;2023-07-13T04:41:58;99415.09;;;25.04;72.70
77410;BME280;66481;51.332;22.804;2023-07-13T04:46:06;99409.13;;;24.75;73.27
77410;BME280;66481;51.332;22.804;2023-07-13T04:50:08;99411.72;;;24.24;75.85
77410;BME280;66481;51.332;22.804;2023-07-13T04:54:12;99405.72;;;23.88;77.40
77410;BME280;66481;51.332;22.804;2023-07-13T04:58:13;99402.09;;;23.54;78.36
77410;BME280;66481;51.332;22.804;2023-07-13T05:02:15;99394.78;;;23.28;79.70
77410;BME280;66481;51.332;22.804;2023-07-13T05:06:17;99396.41;;;23.09;81.28
77410;BME280;66481;51.332;22.804;2023-07-13T05:10:19;99393.19;;;22.92;81.82
77410;BME280;66481;51.332;22.804;2023-07-13T05:14:21;99402.06;;;22.79;82.33
77410;BME280;66481;51.332;22.804;2023-07-13T05:18:23;99405.78;;;22.78;82.85
77410;BME280;66481;51.332;22.804;2023-07-13T05:22:25;99401.94;;;23.01;81.37
77410;BME280;66481;51.332;22.804;2023-07-13T05:26:26;99419.53;;;23.38;80.85
77410;BME280;66481;51.332;22.804;2023-07-13T05:30:29;99421.03;;;23.68;79.11
77410;BME280;66481;51.332;22.804;2023-07-13T05:34:30;99429.41;;;24.33;75.77
77410;BME280;66481;51.332;22.804;2023-07-13T05:38:31;99432.94;;;24.27;75.96
77410;BME280;66481;51.332;22.804;2023-07-13T05:42:32;99434.59;;;24.34;75.35
77410;BME280;66481;51.332;22.804;2023-07-13T05:46:33;99444.16;;;24.17;75.65
77410;BME280;66481;51.332;22.804;2023-07-13T05:50:34;99446.00;;;23.76;76.73
77410;BME280;66481;51.332;22.804;2023-07-13T05:54:35;99422.97;;;23.94;75.42
77410;BME280;66481;51.332;22.804;2023-07-13T05:58:37;99423.38;;;23.84;75.50
77410;BME280;66481;51.332;22.804;2023-07-13T06:02:39;99411.06;;;23.48;77.42
77410;BME280;66481;51.332;22.804;2023-07-13T06:06:40;99426.03;;;23.71;76.12
77410;BME280;66481;51.332;22.804;2023-07-13T06:10:42;99419.38;;;23.73;73.69
77410;BME280;66481;51.332;22.804;2023-07-13T06:14:43;99417.50;;;23.60;75.46
77410;BME280;66481;51.332;22.804;2023-07-13T06:18:47;99413.31;;;23.51;76.86
77410;BME280;66481;51.332;22.804;2023-07-13T06:22:49;99417.09;;;23.70;75.82
77410;BME280;66481;51.332;22.804;2023-07-13T06:26:50;99414.88;;;24.00;75.07
77410;BME280;66481;51.332;22.804;2023-07-13T06:30:51;99410.56;;;24.85;72.13
77410;BME280;66481;51.332;22.804;2023-07-13T06:34:52;99413.44;;;25.42;70.56
77410;BME280;66481;51.332;22.804;2023-07-13T06:38:53;99398.28;;;25.34;72.15
77410;BME280;66481;51.332;22.804;2023-07-13T06:42:56;99394.16;;;25.25;71.06
77410;BME280;66481;51.332;22.804;2023-07-13T06:47:01;99398.34;;;25.59;71.12
77410;BME280;66481;51.332;22.804;2023-07-13T06:51:03;99382.13;;;25.52;69.19
77410;BME280;66481;51.332;22.804;2023-07-13T06:55:05;99375.41;;;25.23;71.25
77410;BME280;66481;51.332;22.804;2023-07-13T06:59:08;99346.72;;;24.64;72.31
77410;BME280;66481;51.332;22.804;2023-07-13T07:03:11;99339.28;;;24.46;72.55
77410;BME280;66481;51.332;22.804;2023-07-13T07:07:14;99342.88;;;24.33;74.25
77410;BME280;66481;51.332;22.804;2023-07-13T07:11:22;99342.50;;;24.09;74.22
77410;BME280;66481;51.332;22.804;2023-07-13T07:15:25;99355.09;;;24.55;73.78
77410;BME280;66481;51.332;22.804;2023-07-13T07:19:31;99405.75;;;28.75;61.88
77410;BME280;66481;51.332;22.804;2023-07-13T07:23:34;99388.00;;;29.42;58.02
77410;BME280;66481;51.332;22.804;2023-07-13T07:27:37;99379.03;;;28.48;59.71
77410;BME280;66481;51.332;22.804;2023-07-13T07:31:39;99390.34;;;30.35;51.84
77410;BME280;66481;51.332;22.804;2023-07-13T07:35:41;99393.38;;;31.49;51.84
77410;BME280;66481;51.332;22.804;2023-07-13T07:39:43;99384.56;;;32.44;48.57
77410;BME280;66481;51.332;22.804;2023-07-13T07:43:46;99371.97;;;32.43;51.20
77410;BME280;66481;51.332;22.804;2023-07-13T07:47:47;99393.53;;;33.76;45.38
77410;BME280;66481;51.332;22.804;2023-07-13T07:51:49;99376.41;;;31.74;48.57
77410;BME280;66481;51.332;22.804;2023-07-13T07:55:52;99355.28;;;29.13;53.85
77410;BME280;66481;51.332;22.804;2023-07-13T07:59:54;99357.41;;;27.94;57.04
77410;BME280;66481;51.332;22.804;2023-07-13T08:03:56;99354.72;;;27.52;58.96
77410;BME280;66481;51.332;22.804;2023-07-13T08:07:58;99356.63;;;27.64;59.27
77410;BME280;66481;51.332;22.804;2023-07-13T08:12:00;99359.09;;;27.23;59.62
77410;BME280;66481;51.332;22.804;2023-07-13T08:16:04;99344.97;;;26.10;63.91
77410;BME280;66481;51.332;22.804;2023-07-13T08:20:08;99352.84;;;25.36;65.58
77410;BME280;66481;51.332;22.804;2023-07-13T08:24:10;99359.25;;;25.74;64.34
77410;BME280;66481;51.332;22.804;2023-07-13T08:28:11;99347.13;;;25.51;65.56
77410;BME280;66481;51.332;22.804;2023-07-13T08:32:14;99361.75;;;26.00;65.08
77410;BME280;66481;51.332;22.804;2023-07-13T08:36:15;99383.75;;;27.10;64.07
77410;BME280;66481;51.332;22.804;2023-07-13T08:40:18;99345.69;;;25.10;69.12
77410;BME280;66481;51.332;22.804;2023-07-13T08:48:57;99369.13;;;25.23;70.90
77410;BME280;66481;51.332;22.804;2023-07-13T08:53:03;99370.16;;;25.35;71.11
77410;BME280;66481;51.332;22.804;2023-07-13T08:57:17;99343.44;;;25.00;72.83
77410;BME280;66481;51.332;22.804;2023-07-13T09:06:14;99336.16;;;25.39;70.49
77410;BME280;66481;51.332;22.804;2023-07-13T09:10:25;99345.47;;;25.75;70.00
77410;BME280;66481;51.332;22.804;2023-07-13T09:14:57;99364.25;;;26.64;66.52
77410;BME280;66481;51.332;22.804;2023-07-13T09:19:04;99339.47;;;26.35;68.47
77410;BME280;66481;51.332;22.804;2023-07-13T09:23:16;99330.69;;;25.71;70.47
77410;BME280;66481;51.332;22.804;2023-07-13T09:27:29;99321.66;;;25.20;70.68
77410;BME280;66481;51.332;22.804;2023-07-13T09:31:32;99314.91;;;24.52;73.44
77410;BME280;66481;51.332;22.804;2023-07-13T09:35:38;99314.53;;;24.42;75.19
77410;BME280;66481;51.332;22.804;2023-07-13T09:39:40;99316.16;;;24.56;74.54
77410;BME280;66481;51.332;22.804;2023-07-13T09:44:06;99323.09;;;24.32;75.41
77410;BME280;66481;51.332;22.804;2023-07-13T09:48:15;99320.59;;;24.31;75.03
77410;BME280;66481;51.332;22.804;2023-07-13T09:52:18;99321.16;;;24.46;74.83
77410;BME280;66481;51.332;22.804;2023-07-13T09:56:27;99324.94;;;24.45;73.53
77410;BME280;66481;51.332;22.804;2023-07-13T10:00:29;99325.78;;;24.32;75.03
77410;BME280;66481;51.332;22.804;2023-07-13T10:04:34;99330.47;;;24.70;74.14
77410;BME280;66481;51.332;22.804;2023-07-13T10:08:37;99326.16;;;25.01;71.54
77410;BME280;66481;51.332;22.804;2023-07-13T10:12:38;99333.72;;;25.31;73.76
77410;BME280;66481;51.332;22.804;2023-07-13T10:16:42;99328.50;;;25.61;70.05
77410;BME280;66481;51.332;22.804;2023-07-13T10:20:45;99321.09;;;25.75;68.98
77410;BME280;66481;51.332;22.804;2023-07-13T10:24:46;99311.50;;;25.73;68.99
77410;BME280;66481;51.332;22.804;2023-07-13T10:28:52;99314.59;;;25.76;66.70
77410;BME280;66481;51.332;22.804;2023-07-13T10:33:02;99314.34;;;25.59;67.83
77410;BME280;66481;51.332;22.804;2023-07-13T10:37:17;99297.69;;;25.30;69.17
77410;BME280;66481;51.332;22.804;2023-07-13T10:41:24;99287.41;;;25.39;67.80
77410;BME280;66481;51.332;22.804;2023-07-13T10:45:30;99274.34;;;25.23;69.46
77410;BME280;66481;51.332;22.804;2023-07-13T10:49:35;99280.22;;;25.20;70.62
77410;BME280;66481;51.332;22.804;2023-07-13T10:53:38;99286.22;;;25.53;69.61
77410;BME280;66481;51.332;22.804;2023-07-13T10:57:44;99271.44;;;24.92;70.23
77410;BME280;66481;51.332;22.804;2023-07-13T11:06:38;99272.09;;;25.20;70.75
77410;BME280;66481;51.332;22.804;2023-07-13T11:15:48;99282.94;;;24.81;73.91
77410;BME280;66481;51.332;22.804;2023-07-13T11:19:51;99283.88;;;24.68;73.74
77410;BME280;66481;51.332;22.804;2023-07-13T11:24:02;99286.16;;;24.65;75.02
77410;BME280;66481;51.332;22.804;2023-07-13T11:28:18;99281.22;;;24.55;75.51
77410;BME280;66481;51.332;22.804;2023-07-13T11:32:31;99275.81;;;24.55;75.02
77410;BME280;66481;51.332;22.804;2023-07-13T11:36:37;99261.75;;;24.26;75.06
77410;BME280;66481;51.332;22.804;2023-07-13T11:40:41;99267.25;;;24.51;74.94
77410;BME280;66481;51.332;22.804;2023-07-13T11:44:48;99256.22;;;24.53;74.65
77410;BME280;66481;51.332;22.804;2023-07-13T11:48:50;99262.88;;;24.57;74.30
77410;BME280;66481;51.332;22.804;2023-07-13T11:52:52;99250.28;;;24.76;74.01
77410;BME280;66481;51.332;22.804;2023-07-13T11:57:28;99357.34;;;24.58;73.17
77410;BME280;66481;51.332;22.804;2023-07-13T12:01:32;99243.91;;;25.02;72.60
77410;BME280;66481;51.332;22.804;2023-07-13T12:05:36;99232.31;;;25.20;70.11
77410;BME280;66481;51.332;22.804;2023-07-13T12:09:38;99229.91;;;25.37;72.13
77410;BME280;66481;51.332;22.804;2023-07-13T12:13:39;99231.16;;;25.60;69.96
77410;BME280;66481;51.332;22.804;2023-07-13T12:17:41;99225.91;;;25.65;69.99
77410;BME280;66481;51.332;22.804;2023-07-13T12:21:44;99222.06;;;25.29;70.40
77410;BME280;66481;51.332;22.804;2023-07-13T12:25:45;99211.75;;;24.81;71.50
77410;BME280;66481;51.332;22.804;2023-07-13T12:29:52;99235.16;;;25.00;70.87
77410;BME280;66481;51.332;22.804;2023-07-13T12:34:09;99230.53;;;25.07;72.91
77410;BME280;66481;51.332;22.804;2023-07-13T12:38:12;99225.47;;;24.86;72.09
77410;BME280;66481;51.332;22.804;2023-07-13T12:42:20;99221.63;;;25.00;71.17
77410;BME280;66481;51.332;22.804;2023-07-13T12:46:26;99218.13;;;24.93;71.95
77410;BME280;66481;51.332;22.804;2023-07-13T12:50:42;99228.53;;;24.96;72.97
77410;BME280;66481;51.332;22.804;2023-07-13T12:54:53;99219.81;;;24.94;72.44
77410;BME280;66481;51.332;22.804;2023-07-13T12:59:02;99219.19;;;24.92;72.86
77410;BME280;66481;51.332;22.804;2023-07-13T13:03:29;99209.69;;;24.76;74.13
77410;BME280;66481;51.332;22.804;2023-07-13T13:07:28;99195.84;;;24.66;75.63
77410;BME280;66481;51.332;22.804;2023-07-13T13:11:31;99189.97;;;24.69;74.60
77410;BME280;66481;51.332;22.804;2023-07-13T13:15:35;99195.44;;;24.62;75.34
77410;BME280;66481;51.332;22.804;2023-07-13T13:19:40;99196.16;;;24.76;75.76
77410;BME280;66481;51.332;22.804;2023-07-13T13:23:42;99186.31;;;24.88;74.62
77410;BME280;66481;51.332;22.804;2023-07-13T13:27:45;99193.94;;;24.98;74.34
77410;BME280;66481;51.332;22.804;2023-07-13T13:31:47;99193.78;;;25.18;73.10
77410;BME280;66481;51.332;22.804;2023-07-13T13:35:50;99185.59;;;25.00;76.02
77410;BME280;66481;51.332;22.804;2023-07-13T13:39:52;99192.63;;;25.07;75.24
77410;BME280;66481;51.332;22.804;2023-07-13T13:43:56;99199.31;;;25.05;74.35
77410;BME280;66481;51.332;22.804;2023-07-13T13:47:58;99182.28;;;24.98;74.09
77410;BME280;66481;51.332;22.804;2023-07-13T13:52:00;99201.41;;;25.03;75.33
77410;BME280;66481;51.332;22.804;2023-07-13T13:56:01;99200.84;;;24.94;75.03
77410;BME280;66481;51.332;22.804;2023-07-13T14:00:03;99198.28;;;24.74;76.41
77410;BME280;66481;51.332;22.804;2023-07-13T14:04:13;99220.84;;;24.93;76.18
77410;BME280;66481;51.332;22.804;2023-07-13T14:08:18;99219.28;;;24.78;76.69
77410;BME280;66481;51.332;22.804;2023-07-13T14:12:21;99217.31;;;24.61;76.87
77410;BME280;66481;51.332;22.804;2023-07-13T14:16:26;99232.69;;;24.53;77.91
77410;BME280;66481;51.332;22.804;2023-07-13T14:20:33;99240.31;;;24.31;78.64
77410;BME280;66481;51.332;22.804;2023-07-13T14:24:34;99242.63;;;24.28;79.81
77410;BME280;66481;51.332;22.804;2023-07-13T14:28:41;99242.06;;;24.12;80.39
77410;BME280;66481;51.332;22.804;2023-07-13T14:32:44;99232.94;;;23.80;80.78
77410;BME280;66481;51.332;22.804;2023-07-13T14:36:48;99246.25;;;23.75;80.33
77410;BME280;66481;51.332;22.804;2023-07-13T14:40:50;99258.13;;;23.67;81.03
77410;BME280;66481;51.332;22.804;2023-07-13T14:44:54;99256.25;;;23.61;80.85
77410;BME280;66481;51.332;22.804;2023-07-13T14:53:14;99273.72;;;23.32;83.32
77410;BME280;66481;51.332;22.804;2023-07-13T14:57:17;99262.28;;;23.16;84.60
77410;BME280;66481;51.332;22.804;2023-07-13T15:01:20;99273.47;;;23.13;84.09
77410;BME280;66481;51.332;22.804;2023-07-13T15:05:26;99280.34;;;23.16;84.99
77410;BME280;66481;51.332;22.804;2023-07-13T15:09:31;99284.66;;;23.03;87.30
77410;BME280;66481;51.332;22.804;2023-07-13T15:13:32;99292.50;;;22.85;88.67
77410;BME280;66481;51.332;22.804;2023-07-13T15:21:37;99304.94;;;22.79;90.02
77410;BME280;66481;51.332;22.804;2023-07-13T15:25:42;99305.09;;;22.64;90.15
77410;BME280;66481;51.332;22.804;2023-07-13T15:29:45;99324.13;;;22.49;91.18
77410;BME280;66481;51.332;22.804;2023-07-13T15:33:48;99326.38;;;21.54;86.69
77410;BME280;66481;51.332;22.804;2023-07-13T15:37:51;99318.66;;;20.72;87.56
77410;BME280;66481;51.332;22.804;2023-07-13T15:41:53;99313.88;;;20.07;87.65
77410;BME280;66481;51.332;22.804;2023-07-13T15:45:55;99323.19;;;19.59;89.00
77410;BME280;66481;51.332;22.804;2023-07-13T15:49:56;99325.78;;;19.29;90.98
77410;BME280;66481;51.332;22.804;2023-07-13T15:54:02;99341.88;;;19.29;92.38
77410;BME280;66481;51.332;22.804;2023-07-13T15:58:10;99353.84;;;19.18;93.60
77410;BME280;66481;51.332;22.804;2023-07-13T16:02:21;99356.72;;;18.85;91.64
77410;BME280;66481;51.332;22.804;2023-07-13T16:06:29;99371.81;;;18.38;93.55
77410;BME280;66481;51.332;22.804;2023-07-13T16:10:37;99359.78;;;18.26;95.59
77410;BME280;66481;51.332;22.804;2023-07-13T16:14:41;99364.47;;;18.24;96.83
77410;BME280;66481;51.332;22.804;2023-07-13T16:18:42;99354.59;;;18.16;98.33
77410;BME280;66481;51.332;22.804;2023-07-13T16:22:46;99355.16;;;17.95;98.22
77410;BME280;66481;51.332;22.804;2023-07-13T16:26:49;99402.97;;;17.82;99.11
77410;BME280;66481;51.332;22.804;2023-07-13T16:30:50;99385.09;;;17.74;99.37
77410;BME280;66481;51.332;22.804;2023-07-13T16:34:52;99393.13;;;17.74;99.27
77410;BME280;66481;51.332;22.804;2023-07-13T16:38:54;99376.38;;;17.56;99.94
77410;BME280;66481;51.332;22.804;2023-07-13T16:42:57;99355.66;;;17.58;99.96
77410;BME280;66481;51.332;22.804;2023-07-13T16:46:59;99346.78;;;17.57;100.00
77410;BME280;66481;51.332;22.804;2023-07-13T16:51:02;99353.47;;;17.61;100.00
77410;BME280;66481;51.332;22.804;2023-07-13T16:55:08;99362.00;;;17.73;100.00
77410;BME280;66481;51.332;22.804;2023-07-13T16:59:14;99353.63;;;17.68;100.00
77410;BME280;66481;51.332;22.804;2023-07-13T17:03:16;99365.88;;;17.71;99.95
77410;BME280;66481;51.332;22.804;2023-07-13T17:07:19;99338.09;;;17.55;99.95
77410;BME280;66481;51.332;22.804;2023-07-13T17:11:24;99347.28;;;17.53;100.00
77410;BME280;66481;51.332;22.804;2023-07-13T17:15:27;99363.19;;;17.71;100.00
77410;BME280;66481;51.332;22.804;2023-07-13T17:19:30;99345.28;;;17.71;100.00
77410;BME280;66481;51.332;22.804;2023-07-13T17:23:37;99361.84;;;17.83;99.42
77410;BME280;66481;51.332;22.804;2023-07-13T17:27:40;99352.13;;;17.82;99.02
77410;BME280;66481;51.332;22.804;2023-07-13T17:31:42;99360.84;;;17.76;99.26
77410;BME280;66481;51.332;22.804;2023-07-13T17:35:44;99349.81;;;17.79;99.58
77410;BME280;66481;51.332;22.804;2023-07-13T17:39:47;99352.31;;;17.89;99.08
77410;BME280;66481;51.332;22.804;2023-07-13T17:43:49;99339.25;;;17.77;98.84
77410;BME280;66481;51.332;22.804;2023-07-13T17:47:50;99349.97;;;17.77;98.74
77410;BME280;66481;51.332;22.804;2023-07-13T17:51:53;99336.44;;;17.62;99.63
77410;BME280;66481;51.332;22.804;2023-07-13T17:55:54;99345.28;;;17.63;99.12
77410;BME280;66481;51.332;22.804;2023-07-13T17:59:56;99339.09;;;17.54;100.00
77410;BME280;66481;51.332;22.804;2023-07-13T18:04:00;99357.50;;;17.57;100.00
77410;BME280;66481;51.332;22.804;2023-07-13T18:08:01;99347.44;;;17.59;100.00
77410;BME280;66481;51.332;22.804;2023-07-13T18:12:09;99397.13;;;17.62;100.00
77410;BME280;66481;51.332;22.804;2023-07-13T18:16:19;99406.69;;;17.56;100.00
77410;BME280;66481;51.332;22.804;2023-07-13T18:20:22;99424.88;;;17.53;100.00
77410;BME280;66481;51.332;22.804;2023-07-13T18:24:23;99423.53;;;17.48;100.00
77410;BME280;66481;51.332;22.804;2023-07-13T18:28:24;99430.88;;;17.38;100.00
77410;BME280;66481;51.332;22.804;2023-07-13T18:32:27;99456.78;;;17.38;100.00
77410;BME280;66481;51.332;22.804;2023-07-13T18:36:29;99461.91;;;17.23;100.00
77410;BME280;66481;51.332;22.804;2023-07-13T18:40:31;99497.88;;;17.28;100.00
77410;BME280;66481;51.332;22.804;2023-07-13T18:44:34;99491.09;;;17.42;100.00
77410;BME280;66481;51.332;22.804;2023-07-13T18:48:36;99534.56;;;17.44;100.00
77410;BME280;66481;51.332;22.804;2023-07-13T18:52:37;99550.59;;;17.44;100.00
77410;BME280;66481;51.332;22.804;2023-07-13T18:56:38;99562.91;;;17.29;100.00
77410;BME280;66481;51.332;22.804;2023-07-13T19:00:41;99592.34;;;17.29;100.00
77410;BME280;66481;51.332;22.804;2023-07-13T19:04:43;99589.81;;;17.27;100.00
77410;BME280;66481;51.332;22.804;2023-07-13T19:08:44;99631.94;;;17.25;100.00
77410;BME280;66481;51.332;22.804;2023-07-13T19:12:48;99653.88;;;17.11;100.00
77410;BME280;66481;51.332;22.804;2023-07-13T19:16:53;99678.38;;;16.98;100.00
77410;BME280;66481;51.332;22.804;2023-07-13T19:20:58;99714.72;;;16.91;100.00
77410;BME280;66481;51.332;22.804;2023-07-13T19:25:02;99722.09;;;16.79;100.00
77410;BME280;66481;51.332;22.804;2023-07-13T19:29:04;99699.03;;;16.78;100.00
77410;BME280;66481;51.332;22.804;2023-07-13T19:33:11;99732.66;;;16.81;100.00
77410;BME280;66481;51.332;22.804;2023-07-13T19:37:21;99772.38;;;16.94;100.00
77410;BME280;66481;51.332;22.804;2023-07-13T19:41:25;99794.28;;;16.97;100.00
77410;BME280;66481;51.332;22.804;2023-07-13T19:45:28;99759.53;;;16.97;100.00
77410;BME280;66481;51.332;22.804;2023-07-13T19:49:30;99795.84;;;17.00;100.00
77410;BME280;66481;51.332;22.804;2023-07-13T19:53:31;99818.44;;;16.87;100.00
77410;BME280;66481;51.332;22.804;2023-07-13T19:57:32;99832.97;;;17.03;100.00
77410;BME280;66481;51.332;22.804;2023-07-13T20:01:34;99856.16;;;17.02;100.00
77410;BME280;66481;51.332;22.804;2023-07-13T20:05:36;99874.63;;;16.96;100.00
77410;BME280;66481;51.332;22.804;2023-07-13T20:09:38;99888.63;;;17.07;100.00
77410;BME280;66481;51.332;22.804;2023-07-13T20:13:45;99909.47;;;16.86;100.00
77410;BME280;66481;51.332;22.804;2023-07-13T20:17:49;99926.97;;;16.98;100.00
77410;BME280;66481;51.332;22.804;2023-07-13T20:21:51;99944.13;;;16.96;100.00
77410;BME280;66481;51.332;22.804;2023-07-13T20:25:52;99944.00;;;16.97;100.00
77410;BME280;66481;51.332;22.804;2023-07-13T20:29:55;99996.47;;;16.98;100.00
77410;BME280;66481;51.332;22.804;2023-07-13T20:33:58;99989.59;;;16.96;100.00
77410;BME280;66481;51.332;22.804;2023-07-13T20:38:02;99983.81;;;17.00;100.00
77410;BME280;66481;51.332;22.804;2023-07-13T20:42:10;99991.28;;;16.97;100.00
77410;BME280;66481;51.332;22.804;2023-07-13T20:46:14;100044.75;;;16.97;100.00
77410;BME280;66481;51.332;22.804;2023-07-13T20:50:28;100025.22;;;16.86;100.00
77410;BME280;66481;51.332;22.804;2023-07-13T20:54:30;100058.00;;;16.88;100.00
77410;BME280;66481;51.332;22.804;2023-07-13T20:58:31;99843.81;;;16.73;100.00
77410;BME280;66481;51.332;22.804;2023-07-13T21:02:33;99862.53;;;16.73;100.00
77410;BME280;66481;51.332;22.804;2023-07-13T21:06:35;99889.00;;;16.67;100.00
77410;BME280;66481;51.332;22.804;2023-07-13T21:10:38;99916.16;;;16.62;100.00
77410;BME280;66481;51.332;22.804;2023-07-13T21:14:39;99961.69;;;16.70;100.00
77410;BME280;66481;51.332;22.804;2023-07-13T21:18:48;100002.31;;;16.74;100.00
77410;BME280;66481;51.332;22.804;2023-07-13T21:22:50;100030.72;;;16.75;100.00
77410;BME280;66481;51.332;22.804;2023-07-13T21:26:51;100028.91;;;16.76;100.00
77410;BME280;66481;51.332;22.804;2023-07-13T21:30:59;100065.06;;;16.70;100.00
77410;BME280;66481;51.332;22.804;2023-07-13T21:35:01;100078.69;;;16.77;100.00